sensor_id;sensor_type;location;lat;lon;timestamp;temperature;humidity
64111;DHT22;50401;48.188;11.566;2023-07-29T00:00:40;19.18;83.25
64111;DHT22;50401;48.188;11.566;2023-07-29T00:03:05;19.14;83.35
64111;DHT22;50401;48.188;11.566;2023-07-29T00:05:31;18.96;83.52
64111;DHT22;50401;48.188;11.566;2023-07-29T00:07:56;18.93;83.67
64111;DHT22;50401;48.188;11.566;2023-07-29T00:10:22;19.02;83.42
64111;DHT22;50401;48.188;11.566;2023-07-29T00:12:47;19.11;83.16
64111;DHT22;50401;48.188;11.566;2023-07-29T00:15:12;19.15;82.92
64111;DHT22;50401;48.188;11.566;2023-07-29T00:17:38;19.20;82.71
64111;DHT22;50401;48.188;11.566;2023-07-29T00:20:04;19.17;82.42
64111;DHT22;50401;48.188;11.566;2023-07-29T00:22:30;19.13;82.21
64111;DHT22;50401;48.188;11.566;2023-07-29T00:24:55;19.14;82.26
64111;DHT22;50401;48.188;11.566;2023-07-29T00:27:22;19.08;82.34
64111;DHT22;50401;48.188;11.566;2023-07-29T00:29:47;19.08;82.23
64111;DHT22;50401;48.188;11.566;2023-07-29T00:32:13;19.10;82.21
64111;DHT22;50401;48.188;11.566;2023-07-29T00:34:38;19.10;82.20
64111;DHT22;50401;48.188;11.566;2023-07-29T00:37:03;19.08;82.11
64111;DHT22;50401;48.188;11.566;2023-07-29T00:39:31;19.04;81.95
64111;DHT22;50401;48.188;11.566;2023-07-29T00:41:56;19.08;81.98
64111;DHT22;50401;48.188;11.566;2023-07-29T00:44:21;19.08;81.71
64111;DHT22;50401;48.188;11.566;2023-07-29T00:46:47;19.17;81.43
64111;DHT22;50401;48.188;11.566;2023-07-29T00:49:15;19.20;81.33
64111;DHT22;50401;48.188;11.566;2023-07-29T00:51:40;19.21;81.32
64111;DHT22;50401;48.188;11.566;2023-07-29T00:54:05;19.07;81.34
64111;DHT22;50401;48.188;11.566;2023-07-29T00:56:31;19.13;81.26
64111;DHT22;50401;48.188;11.566;2023-07-29T00:58:56;19.17;81.20
64111;DHT22;50401;48.188;11.566;2023-07-29T01:01:25;19.18;81.26
64111;DHT22;50401;48.188;11.566;2023-07-29T01:03:50;19.18;81.08
64111;DHT22;50401;48.188;11.566;2023-07-29T01:09:09;19.28;80.75
64111;DHT22;50401;48.188;11.566;2023-07-29T01:12:01;19.25;80.88
64111;DHT22;50401;48.188;11.566;2023-07-29T01:17:00;19.18;80.96
64111;DHT22;50401;48.188;11.566;2023-07-29T01:19:58;19.27;80.82
64111;DHT22;50401;48.188;11.566;2023-07-29T01:22:26;19.34;80.62
64111;DHT22;50401;48.188;11.566;2023-07-29T01:24:52;19.30;80.71
64111;DHT22;50401;48.188;11.566;2023-07-29T01:27:18;19.28;80.82
64111;DHT22;50401;48.188;11.566;2023-07-29T01:29:43;19.04;81.23
64111;DHT22;50401;48.188;11.566;2023-07-29T01:32:19;18.85;81.94
64111;DHT22;50401;48.188;11.566;2023-07-29T01:37:40;18.59;82.69
64111;DHT22;50401;48.188;11.566;2023-07-29T01:40:08;18.40;83.34
64111;DHT22;50401;48.188;11.566;2023-07-29T01:42:34;18.48;83.28
64111;DHT22;50401;48.188;11.566;2023-07-29T01:44:59;18.37;83.39
64111;DHT22;50401;48.188;11.566;2023-07-29T01:47:25;18.45;83.22
64111;DHT22;50401;48.188;11.566;2023-07-29T01:49:51;18.61;82.89
64111;DHT22;50401;48.188;11.566;2023-07-29T01:52:16;18.61;82.78
64111;DHT22;50401;48.188;11.566;2023-07-29T01:54:41;18.68;82.60
64111;DHT22;50401;48.188;11.566;2023-07-29T01:57:07;18.80;82.29
64111;DHT22;50401;48.188;11.566;2023-07-29T01:59:32;19.02;81.85
64111;DHT22;50401;48.188;11.566;2023-07-29T02:01:58;19.10;81.64
64111;DHT22;50401;48.188;11.566;2023-07-29T02:04:23;19.14;81.37
64111;DHT22;50401;48.188;11.566;2023-07-29T02:06:48;19.14;81.35
64111;DHT22;50401;48.188;11.566;2023-07-29T02:09:14;18.99;81.50
64111;DHT22;50401;48.188;11.566;2023-07-29T02:11:39;19.08;81.36
64111;DHT22;50401;48.188;11.566;2023-07-29T02:14:05;19.11;81.29
64111;DHT22;50401;48.188;11.566;2023-07-29T02:16:30;19.07;81.35
64111;DHT22;50401;48.188;11.566;2023-07-29T02:18:55;18.96;81.62
64111;DHT22;50401;48.188;11.566;2023-07-29T02:21:21;19.00;81.64
64111;DHT22;50401;48.188;11.566;2023-07-29T02:23:46;18.97;81.68
64111;DHT22;50401;48.188;11.566;2023-07-29T02:26:11;18.96;81.80
64111;DHT22;50401;48.188;11.566;2023-07-29T02:28:37;18.93;81.85
64111;DHT22;50401;48.188;11.566;2023-07-29T02:33:34;18.79;82.05
64111;DHT22;50401;48.188;11.566;2023-07-29T02:36:00;18.80;82.26
64111;DHT22;50401;48.188;11.566;2023-07-29T02:38:25;18.68;82.42
64111;DHT22;50401;48.188;11.566;2023-07-29T02:40:50;18.52;82.87
64111;DHT22;50401;48.188;11.566;2023-07-29T02:43:16;18.49;83.01
64111;DHT22;50401;48.188;11.566;2023-07-29T02:45:41;18.58;82.79
64111;DHT22;50401;48.188;11.566;2023-07-29T02:48:06;18.66;82.84
64111;DHT22;50401;48.188;11.566;2023-07-29T02:50:34;18.73;82.52
64111;DHT22;50401;48.188;11.566;2023-07-29T02:52:59;18.73;82.45
64111;DHT22;50401;48.188;11.566;2023-07-29T02:55:26;18.69;82.30
64111;DHT22;50401;48.188;11.566;2023-07-29T02:57:51;18.61;82.42
64111;DHT22;50401;48.188;11.566;2023-07-29T03:00:17;18.59;82.41
64111;DHT22;50401;48.188;11.566;2023-07-29T03:02:42;18.65;82.35
64111;DHT22;50401;48.188;11.566;2023-07-29T03:05:08;18.66;82.31
64111;DHT22;50401;48.188;11.566;2023-07-29T03:07:33;18.48;82.67
64111;DHT22;50401;48.188;11.566;2023-07-29T03:09:59;18.55;82.56
64111;DHT22;50401;48.188;11.566;2023-07-29T03:12:24;18.28;83.19
64111;DHT22;50401;48.188;11.566;2023-07-29T03:14:49;18.23;83.27
64111;DHT22;50401;48.188;11.566;2023-07-29T03:17:15;17.83;84.37
64111;DHT22;50401;48.188;11.566;2023-07-29T03:19:40;17.83;84.48
64111;DHT22;50401;48.188;11.566;2023-07-29T03:22:05;17.83;84.53
64111;DHT22;50401;48.188;11.566;2023-07-29T03:24:31;17.86;84.50
64111;DHT22;50401;48.188;11.566;2023-07-29T03:26:56;17.93;84.33
64111;DHT22;50401;48.188;11.566;2023-07-29T03:29:21;17.95;84.45
64111;DHT22;50401;48.188;11.566;2023-07-29T03:31:47;17.96;84.28
64111;DHT22;50401;48.188;11.566;2023-07-29T03:34:12;17.85;83.96
64111;DHT22;50401;48.188;11.566;2023-07-29T03:36:37;17.65;84.61
64111;DHT22;50401;48.188;11.566;2023-07-29T03:39:03;17.62;84.85
64111;DHT22;50401;48.188;11.566;2023-07-29T03:41:28;17.71;84.57
64111;DHT22;50401;48.188;11.566;2023-07-29T03:43:54;17.76;84.31
64111;DHT22;50401;48.188;11.566;2023-07-29T03:46:19;17.69;84.40
64111;DHT22;50401;48.188;11.566;2023-07-29T03:48:47;17.64;84.32
64111;DHT22;50401;48.188;11.566;2023-07-29T03:51:12;17.69;84.21
64111;DHT22;50401;48.188;11.566;2023-07-29T03:53:37;17.82;84.06
64111;DHT22;50401;48.188;11.566;2023-07-29T03:56:03;17.72;84.08
64111;DHT22;50401;48.188;11.566;2023-07-29T03:58:28;17.68;84.12
64111;DHT22;50401;48.188;11.566;2023-07-29T04:00:53;17.69;84.29
64111;DHT22;50401;48.188;11.566;2023-07-29T04:03:19;17.69;84.21
64111;DHT22;50401;48.188;11.566;2023-07-29T04:05:44;17.61;84.46
64111;DHT22;50401;48.188;11.566;2023-07-29T04:08:09;17.54;84.53
64111;DHT22;50401;48.188;11.566;2023-07-29T04:10:35;17.52;84.65
64111;DHT22;50401;48.188;11.566;2023-07-29T04:13:00;17.51;84.66
64111;DHT22;50401;48.188;11.566;2023-07-29T04:15:26;17.51;84.49
64111;DHT22;50401;48.188;11.566;2023-07-29T04:17:51;17.41;84.86
64111;DHT22;50401;48.188;11.566;2023-07-29T04:20:16;17.51;84.69
64111;DHT22;50401;48.188;11.566;2023-07-29T04:22:42;17.38;84.87
64111;DHT22;50401;48.188;11.566;2023-07-29T04:25:07;17.37;84.95
64111;DHT22;50401;48.188;11.566;2023-07-29T04:27:33;17.38;84.97
64111;DHT22;50401;48.188;11.566;2023-07-29T04:29:58;17.37;85.05
64111;DHT22;50401;48.188;11.566;2023-07-29T04:32:23;17.37;85.07
64111;DHT22;50401;48.188;11.566;2023-07-29T04:34:49;17.35;85.23
64111;DHT22;50401;48.188;11.566;2023-07-29T04:37:14;17.38;85.18
64111;DHT22;50401;48.188;11.566;2023-07-29T04:39:39;17.27;85.45
64111;DHT22;50401;48.188;11.566;2023-07-29T04:42:05;17.24;85.52
64111;DHT22;50401;48.188;11.566;2023-07-29T04:44:30;17.37;85.37
64111;DHT22;50401;48.188;11.566;2023-07-29T04:46:56;17.62;84.66
64111;DHT22;50401;48.188;11.566;2023-07-29T04:49:21;17.95;84.00
64111;DHT22;50401;48.188;11.566;2023-07-29T04:51:46;17.89;83.81
64111;DHT22;50401;48.188;11.566;2023-07-29T04:54:11;17.85;84.20
64111;DHT22;50401;48.188;11.566;2023-07-29T04:56:37;18.04;83.51
64111;DHT22;50401;48.188;11.566;2023-07-29T04:59:02;18.27;82.94
64111;DHT22;50401;48.188;11.566;2023-07-29T05:01:27;18.51;82.33
64111;DHT22;50401;48.188;11.566;2023-07-29T05:03:53;19.04;81.08
64111;DHT22;50401;48.188;11.566;2023-07-29T05:06:18;19.30;80.03
64111;DHT22;50401;48.188;11.566;2023-07-29T05:08:44;19.35;80.09
64111;DHT22;50401;48.188;11.566;2023-07-29T05:11:09;19.70;78.74
64111;DHT22;50401;48.188;11.566;2023-07-29T05:13:35;19.74;78.50
64111;DHT22;50401;48.188;11.566;2023-07-29T05:16:00;20.08;77.12
64111;DHT22;50401;48.188;11.566;2023-07-29T05:18:25;20.20;77.03
64111;DHT22;50401;48.188;11.566;2023-07-29T05:20:51;20.21;76.59
64111;DHT22;50401;48.188;11.566;2023-07-29T05:23:16;20.03;76.91
64111;DHT22;50401;48.188;11.566;2023-07-29T05:25:41;19.93;77.58
64111;DHT22;50401;48.188;11.566;2023-07-29T05:28:06;19.76;77.96
64111;DHT22;50401;48.188;11.566;2023-07-29T05:30:32;19.93;77.49
64111;DHT22;50401;48.188;11.566;2023-07-29T05:32:59;20.35;76.45
64111;DHT22;50401;48.188;11.566;2023-07-29T05:35:24;20.84;74.73
64111;DHT22;50401;48.188;11.566;2023-07-29T05:37:50;21.76;71.94
64111;DHT22;50401;48.188;11.566;2023-07-29T05:40:15;21.17;73.16
64111;DHT22;50401;48.188;11.566;2023-07-29T05:42:41;20.84;74.43
64111;DHT22;50401;48.188;11.566;2023-07-29T05:45:07;20.83;74.72
64111;DHT22;50401;48.188;11.566;2023-07-29T05:47:33;20.81;74.67
64111;DHT22;50401;48.188;11.566;2023-07-29T05:49:58;20.67;74.93
64111;DHT22;50401;48.188;11.566;2023-07-29T05:52:25;20.77;74.90
64111;DHT22;50401;48.188;11.566;2023-07-29T05:54:50;20.77;75.10
64111;DHT22;50401;48.188;11.566;2023-07-29T05:57:15;20.80;74.96
64111;DHT22;50401;48.188;11.566;2023-07-29T05:59:41;20.79;74.92
64111;DHT22;50401;48.188;11.566;2023-07-29T06:02:06;20.65;75.00
64111;DHT22;50401;48.188;11.566;2023-07-29T06:04:31;20.59;75.27
64111;DHT22;50401;48.188;11.566;2023-07-29T06:06:57;20.41;75.73
64111;DHT22;50401;48.188;11.566;2023-07-29T06:09:22;20.10;76.38
64111;DHT22;50401;48.188;11.566;2023-07-29T06:11:48;19.42;80.04
64111;DHT22;50401;48.188;11.566;2023-07-29T06:14:13;19.38;80.36
64111;DHT22;50401;48.188;11.566;2023-07-29T06:16:39;19.15;82.60
64111;DHT22;50401;48.188;11.566;2023-07-29T06:19:04;19.22;82.56
64111;DHT22;50401;48.188;11.566;2023-07-29T06:21:30;19.24;82.04
64111;DHT22;50401;48.188;11.566;2023-07-29T06:23:55;19.18;82.45
64111;DHT22;50401;48.188;11.566;2023-07-29T06:26:21;19.20;82.64
64111;DHT22;50401;48.188;11.566;2023-07-29T06:28:46;19.25;82.88
64111;DHT22;50401;48.188;11.566;2023-07-29T06:31:11;19.80;81.44
64111;DHT22;50401;48.188;11.566;2023-07-29T06:33:37;19.97;81.45
64111;DHT22;50401;48.188;11.566;2023-07-29T06:36:02;20.08;81.52
64111;DHT22;50401;48.188;11.566;2023-07-29T06:38:28;19.97;81.08
64111;DHT22;50401;48.188;11.566;2023-07-29T06:40:53;20.00;80.57
64111;DHT22;50401;48.188;11.566;2023-07-29T06:43:18;19.97;80.69
64111;DHT22;50401;48.188;11.566;2023-07-29T06:45:44;20.11;80.41
64111;DHT22;50401;48.188;11.566;2023-07-29T06:48:10;20.13;80.79
64111;DHT22;50401;48.188;11.566;2023-07-29T06:50:35;20.17;80.94
64111;DHT22;50401;48.188;11.566;2023-07-29T06:53:00;20.25;80.66
64111;DHT22;50401;48.188;11.566;2023-07-29T06:55:26;20.10;80.67
64111;DHT22;50401;48.188;11.566;2023-07-29T06:57:51;19.98;81.13
64111;DHT22;50401;48.188;11.566;2023-07-29T07:00:17;19.77;81.71
64111;DHT22;50401;48.188;11.566;2023-07-29T07:02:42;19.76;81.98
64111;DHT22;50401;48.188;11.566;2023-07-29T07:05:08;19.59;82.76
64111;DHT22;50401;48.188;11.566;2023-07-29T07:07:33;19.38;83.33
64111;DHT22;50401;48.188;11.566;2023-07-29T07:09:58;19.38;83.66
64111;DHT22;50401;48.188;11.566;2023-07-29T07:12:24;19.39;83.79
64111;DHT22;50401;48.188;11.566;2023-07-29T07:14:49;19.47;83.94
64111;DHT22;50401;48.188;11.566;2023-07-29T07:17:14;19.39;84.23
64111;DHT22;50401;48.188;11.566;2023-07-29T07:19:40;19.39;84.34
64111;DHT22;50401;48.188;11.566;2023-07-29T07:22:05;19.44;84.48
64111;DHT22;50401;48.188;11.566;2023-07-29T07:24:31;19.45;85.04
64111;DHT22;50401;48.188;11.566;2023-07-29T07:26:56;19.48;84.70
64111;DHT22;50401;48.188;11.566;2023-07-29T07:29:22;19.56;84.66
64111;DHT22;50401;48.188;11.566;2023-07-29T07:31:52;19.61;84.73
64111;DHT22;50401;48.188;11.566;2023-07-29T07:34:19;19.24;85.18
64111;DHT22;50401;48.188;11.566;2023-07-29T07:36:45;19.03;85.39
64111;DHT22;50401;48.188;11.566;2023-07-29T07:39:10;18.85;86.12
64111;DHT22;50401;48.188;11.566;2023-07-29T07:41:36;19.06;86.17
64111;DHT22;50401;48.188;11.566;2023-07-29T07:44:01;18.86;86.18
64111;DHT22;50401;48.188;11.566;2023-07-29T07:46:28;18.80;86.41
64111;DHT22;50401;48.188;11.566;2023-07-29T07:48:53;19.07;86.24
64111;DHT22;50401;48.188;11.566;2023-07-29T07:51:19;19.13;85.84
64111;DHT22;50401;48.188;11.566;2023-07-29T07:53:44;19.02;85.45
64111;DHT22;50401;48.188;11.566;2023-07-29T07:56:09;19.17;85.29
64111;DHT22;50401;48.188;11.566;2023-07-29T07:58:35;19.30;85.54
64111;DHT22;50401;48.188;11.566;2023-07-29T08:01:01;19.36;84.90
64111;DHT22;50401;48.188;11.566;2023-07-29T08:03:27;19.47;85.08
64111;DHT22;50401;48.188;11.566;2023-07-29T08:05:52;19.51;85.16
64111;DHT22;50401;48.188;11.566;2023-07-29T08:08:18;19.52;84.97
64111;DHT22;50401;48.188;11.566;2023-07-29T08:10:43;19.59;85.18
64111;DHT22;50401;48.188;11.566;2023-07-29T08:13:08;19.73;84.65
64111;DHT22;50401;48.188;11.566;2023-07-29T08:15:33;19.63;84.79
64111;DHT22;50401;48.188;11.566;2023-07-29T08:17:59;19.70;84.87
64111;DHT22;50401;48.188;11.566;2023-07-29T08:20:24;19.70;84.96
64111;DHT22;50401;48.188;11.566;2023-07-29T08:22:50;19.89;84.22
64111;DHT22;50401;48.188;11.566;2023-07-29T08:25:15;20.04;84.10
64111;DHT22;50401;48.188;11.566;2023-07-29T08:27:41;20.07;84.07
64111;DHT22;50401;48.188;11.566;2023-07-29T08:30:07;20.04;83.94
64111;DHT22;50401;48.188;11.566;2023-07-29T08:32:32;20.06;84.37
64111;DHT22;50401;48.188;11.566;2023-07-29T08:34:58;20.21;83.39
64111;DHT22;50401;48.188;11.566;2023-07-29T08:37:23;20.15;84.15
64111;DHT22;50401;48.188;11.566;2023-07-29T08:39:48;20.41;83.72
64111;DHT22;50401;48.188;11.566;2023-07-29T08:42:19;20.45;83.41
64111;DHT22;50401;48.188;11.566;2023-07-29T08:44:45;20.56;83.00
64111;DHT22;50401;48.188;11.566;2023-07-29T08:47:14;20.49;82.75
64111;DHT22;50401;48.188;11.566;2023-07-29T08:49:40;20.63;82.99
64111;DHT22;50401;48.188;11.566;2023-07-29T08:52:07;20.70;81.99
64111;DHT22;50401;48.188;11.566;2023-07-29T08:54:32;20.93;81.56
64111;DHT22;50401;48.188;11.566;2023-07-29T08:56:58;20.97;81.01
64111;DHT22;50401;48.188;11.566;2023-07-29T08:59:24;21.18;80.71
64111;DHT22;50401;48.188;11.566;2023-07-29T09:01:51;21.39;80.65
64111;DHT22;50401;48.188;11.566;2023-07-29T09:04:20;21.60;79.47
64111;DHT22;50401;48.188;11.566;2023-07-29T09:06:47;21.80;78.26
64111;DHT22;50401;48.188;11.566;2023-07-29T09:09:15;22.11;76.42
64111;DHT22;50401;48.188;11.566;2023-07-29T09:11:40;22.43;76.50
64111;DHT22;50401;48.188;11.566;2023-07-29T09:14:05;22.86;75.14
64111;DHT22;50401;48.188;11.566;2023-07-29T09:16:31;23.84;72.54
64111;DHT22;50401;48.188;11.566;2023-07-29T09:19:01;23.82;71.04
64111;DHT22;50401;48.188;11.566;2023-07-29T09:21:26;24.44;69.29
64111;DHT22;50401;48.188;11.566;2023-07-29T09:23:54;25.33;67.22
64111;DHT22;50401;48.188;11.566;2023-07-29T09:26:23;25.61;66.47
64111;DHT22;50401;48.188;11.566;2023-07-29T09:28:52;26.10;65.54
64111;DHT22;50401;48.188;11.566;2023-07-29T09:31:23;26.56;63.78
64111;DHT22;50401;48.188;11.566;2023-07-29T09:33:49;26.72;62.38
64111;DHT22;50401;48.188;11.566;2023-07-29T09:36:14;25.17;65.09
64111;DHT22;50401;48.188;11.566;2023-07-29T09:38:40;24.24;66.57
64111;DHT22;50401;48.188;11.566;2023-07-29T09:41:05;24.56;67.30
64111;DHT22;50401;48.188;11.566;2023-07-29T09:43:32;24.78;65.97
64111;DHT22;50401;48.188;11.566;2023-07-29T09:46:05;25.15;64.70
64111;DHT22;50401;48.188;11.566;2023-07-29T09:48:38;25.93;63.67
64111;DHT22;50401;48.188;11.566;2023-07-29T09:51:14;25.92;63.91
64111;DHT22;50401;48.188;11.566;2023-07-29T09:53:44;26.95;61.14
64111;DHT22;50401;48.188;11.566;2023-07-29T09:56:10;27.18;60.76
64111;DHT22;50401;48.188;11.566;2023-07-29T09:58:36;27.10;60.21
64111;DHT22;50401;48.188;11.566;2023-07-29T10:01:06;26.37;60.88
64111;DHT22;50401;48.188;11.566;2023-07-29T10:03:34;26.24;62.70
64111;DHT22;50401;48.188;11.566;2023-07-29T10:06:05;25.84;62.81
64111;DHT22;50401;48.188;11.566;2023-07-29T10:08:31;25.60;61.93
64111;DHT22;50401;48.188;11.566;2023-07-29T10:11:01;26.00;61.28
64111;DHT22;50401;48.188;11.566;2023-07-29T10:13:27;25.88;61.79
64111;DHT22;50401;48.188;11.566;2023-07-29T10:15:55;25.92;62.14
64111;DHT22;50401;48.188;11.566;2023-07-29T10:18:21;25.95;62.19
64111;DHT22;50401;48.188;11.566;2023-07-29T10:20:49;26.61;61.03
64111;DHT22;50401;48.188;11.566;2023-07-29T10:23:17;26.78;60.57
64111;DHT22;50401;48.188;11.566;2023-07-29T10:25:57;27.00;59.69
64111;DHT22;50401;48.188;11.566;2023-07-29T10:28:25;27.27;59.40
64111;DHT22;50401;48.188;11.566;2023-07-29T10:30:51;27.00;59.84
64111;DHT22;50401;48.188;11.566;2023-07-29T10:33:17;26.86;60.44
64111;DHT22;50401;48.188;11.566;2023-07-29T10:35:42;26.95;60.57
64111;DHT22;50401;48.188;11.566;2023-07-29T10:38:08;26.93;60.25
64111;DHT22;50401;48.188;11.566;2023-07-29T10:40:47;26.87;59.60
64111;DHT22;50401;48.188;11.566;2023-07-29T10:43:19;26.80;59.08
64111;DHT22;50401;48.188;11.566;2023-07-29T10:45:44;26.78;59.79
64111;DHT22;50401;48.188;11.566;2023-07-29T10:48:11;26.73;59.24
64111;DHT22;50401;48.188;11.566;2023-07-29T10:50:36;26.75;59.42
64111;DHT22;50401;48.188;11.566;2023-07-29T10:53:02;26.78;59.62
64111;DHT22;50401;48.188;11.566;2023-07-29T10:55:35;26.71;59.15
64111;DHT22;50401;48.188;11.566;2023-07-29T10:58:14;26.48;59.71
64111;DHT22;50401;48.188;11.566;2023-07-29T11:00:42;26.16;61.09
64111;DHT22;50401;48.188;11.566;2023-07-29T11:03:09;25.84;63.00
64111;DHT22;50401;48.188;11.566;2023-07-29T11:05:48;25.67;63.25
64111;DHT22;50401;48.188;11.566;2023-07-29T11:08:27;25.82;63.26
64111;DHT22;50401;48.188;11.566;2023-07-29T11:10:59;25.84;64.04
64111;DHT22;50401;48.188;11.566;2023-07-29T11:13:28;25.40;60.10
64111;DHT22;50401;48.188;11.566;2023-07-29T11:15:54;24.96;59.28
64111;DHT22;50401;48.188;11.566;2023-07-29T11:18:22;24.58;60.87
64111;DHT22;50401;48.188;11.566;2023-07-29T11:20:47;24.49;61.22
64111;DHT22;50401;48.188;11.566;2023-07-29T11:23:14;24.27;61.59
64111;DHT22;50401;48.188;11.566;2023-07-29T11:25:39;24.44;61.81
64111;DHT22;50401;48.188;11.566;2023-07-29T11:28:04;24.57;61.69
64111;DHT22;50401;48.188;11.566;2023-07-29T11:30:30;24.53;61.86
64111;DHT22;50401;48.188;11.566;2023-07-29T11:32:57;24.32;62.51
64111;DHT22;50401;48.188;11.566;2023-07-29T11:35:23;24.30;62.98
64111;DHT22;50401;48.188;11.566;2023-07-29T11:37:50;24.49;62.68
64111;DHT22;50401;48.188;11.566;2023-07-29T11:40:17;24.54;62.62
64111;DHT22;50401;48.188;11.566;2023-07-29T11:42:44;24.60;62.80
64111;DHT22;50401;48.188;11.566;2023-07-29T11:45:10;24.68;61.86
64111;DHT22;50401;48.188;11.566;2023-07-29T11:47:36;24.76;62.03
64111;DHT22;50401;48.188;11.566;2023-07-29T11:50:10;24.85;61.37
64111;DHT22;50401;48.188;11.566;2023-07-29T11:52:36;24.95;61.70
64111;DHT22;50401;48.188;11.566;2023-07-29T11:55:04;25.08;61.32
64111;DHT22;50401;48.188;11.566;2023-07-29T11:57:30;25.13;60.98
64111;DHT22;50401;48.188;11.566;2023-07-29T11:59:56;25.16;60.36
64111;DHT22;50401;48.188;11.566;2023-07-29T12:02:23;25.19;60.56
64111;DHT22;50401;48.188;11.566;2023-07-29T12:04:50;25.24;60.60
64111;DHT22;50401;48.188;11.566;2023-07-29T12:07:16;25.34;61.13
64111;DHT22;50401;48.188;11.566;2023-07-29T12:09:43;25.37;61.33
64111;DHT22;50401;48.188;11.566;2023-07-29T12:12:08;25.47;60.45
64111;DHT22;50401;48.188;11.566;2023-07-29T12:14:34;25.57;60.67
64111;DHT22;50401;48.188;11.566;2023-07-29T12:17:01;25.61;59.90
64111;DHT22;50401;48.188;11.566;2023-07-29T12:19:35;25.58;60.16
64111;DHT22;50401;48.188;11.566;2023-07-29T12:22:05;25.60;60.68
64111;DHT22;50401;48.188;11.566;2023-07-29T12:24:32;25.52;60.90
64111;DHT22;50401;48.188;11.566;2023-07-29T12:26:58;25.54;60.92
64111;DHT22;50401;48.188;11.566;2023-07-29T12:29:24;25.47;61.59
64111;DHT22;50401;48.188;11.566;2023-07-29T12:31:57;25.34;61.90
64111;DHT22;50401;48.188;11.566;2023-07-29T12:34:25;25.28;62.18
64111;DHT22;50401;48.188;11.566;2023-07-29T12:36:52;25.16;63.23
64111;DHT22;50401;48.188;11.566;2023-07-29T12:39:28;25.08;64.18
64111;DHT22;50401;48.188;11.566;2023-07-29T12:41:56;24.96;65.37
64111;DHT22;50401;48.188;11.566;2023-07-29T12:44:26;24.88;66.07
64111;DHT22;50401;48.188;11.566;2023-07-29T12:46:52;24.71;69.01
64111;DHT22;50401;48.188;11.566;2023-07-29T12:49:18;24.54;71.33
64111;DHT22;50401;48.188;11.566;2023-07-29T12:51:43;24.24;74.92
64111;DHT22;50401;48.188;11.566;2023-07-29T12:54:09;23.71;77.66
64111;DHT22;50401;48.188;11.566;2023-07-29T12:56:35;23.06;76.52
64111;DHT22;50401;48.188;11.566;2023-07-29T12:59:01;22.88;76.15
64111;DHT22;50401;48.188;11.566;2023-07-29T13:01:27;22.74;75.41
64111;DHT22;50401;48.188;11.566;2023-07-29T13:03:53;22.32;76.01
64111;DHT22;50401;48.188;11.566;2023-07-29T13:06:19;22.08;77.11
64111;DHT22;50401;48.188;11.566;2023-07-29T13:08:45;22.09;77.36
64111;DHT22;50401;48.188;11.566;2023-07-29T13:11:10;21.97;77.73
64111;DHT22;50401;48.188;11.566;2023-07-29T13:13:36;21.97;78.28
64111;DHT22;50401;48.188;11.566;2023-07-29T13:16:01;21.85;79.49
64111;DHT22;50401;48.188;11.566;2023-07-29T13:18:27;21.78;79.67
64111;DHT22;50401;48.188;11.566;2023-07-29T13:20:53;21.91;79.70
64111;DHT22;50401;48.188;11.566;2023-07-29T13:23:18;21.98;80.11
64111;DHT22;50401;48.188;11.566;2023-07-29T13:25:44;22.06;80.24
64111;DHT22;50401;48.188;11.566;2023-07-29T13:28:10;22.18;80.63
64111;DHT22;50401;48.188;11.566;2023-07-29T13:30:35;22.22;81.26
64111;DHT22;50401;48.188;11.566;2023-07-29T13:33:01;22.23;81.51
64111;DHT22;50401;48.188;11.566;2023-07-29T13:35:26;22.33;81.83
64111;DHT22;50401;48.188;11.566;2023-07-29T13:37:52;22.40;81.80
64111;DHT22;50401;48.188;11.566;2023-07-29T13:40:17;22.49;82.01
64111;DHT22;50401;48.188;11.566;2023-07-29T13:42:42;22.57;82.12
64111;DHT22;50401;48.188;11.566;2023-07-29T13:45:08;22.61;81.92
64111;DHT22;50401;48.188;11.566;2023-07-29T13:47:34;22.68;81.98
64111;DHT22;50401;48.188;11.566;2023-07-29T13:49:59;22.64;81.91
64111;DHT22;50401;48.188;11.566;2023-07-29T13:52:25;22.49;81.94
64111;DHT22;50401;48.188;11.566;2023-07-29T13:54:50;22.53;82.10
64111;DHT22;50401;48.188;11.566;2023-07-29T13:57:17;22.36;80.93
64111;DHT22;50401;48.188;11.566;2023-07-29T13:59:42;22.40;80.72
64111;DHT22;50401;48.188;11.566;2023-07-29T14:02:07;22.54;80.75
64111;DHT22;50401;48.188;11.566;2023-07-29T14:04:33;22.68;80.98
64111;DHT22;50401;48.188;11.566;2023-07-29T14:06:58;22.71;81.05
64111;DHT22;50401;48.188;11.566;2023-07-29T14:09:25;22.75;81.20
64111;DHT22;50401;48.188;11.566;2023-07-29T14:11:50;22.75;80.39
64111;DHT22;50401;48.188;11.566;2023-07-29T14:14:16;22.77;80.45
64111;DHT22;50401;48.188;11.566;2023-07-29T14:16:41;22.86;80.36
64111;DHT22;50401;48.188;11.566;2023-07-29T14:19:06;22.92;80.43
64111;DHT22;50401;48.188;11.566;2023-07-29T14:21:32;22.90;80.34
64111;DHT22;50401;48.188;11.566;2023-07-29T14:23:57;22.84;80.40
64111;DHT22;50401;48.188;11.566;2023-07-29T14:26:23;22.70;80.91
64111;DHT22;50401;48.188;11.566;2023-07-29T14:28:48;22.70;81.08
64111;DHT22;50401;48.188;11.566;2023-07-29T14:31:15;22.63;81.31
64111;DHT22;50401;48.188;11.566;2023-07-29T14:33:42;22.59;81.32
64111;DHT22;50401;48.188;11.566;2023-07-29T14:36:07;22.60;81.44
64111;DHT22;50401;48.188;11.566;2023-07-29T14:38:32;22.53;81.51
64111;DHT22;50401;48.188;11.566;2023-07-29T14:40:58;22.43;81.71
64111;DHT22;50401;48.188;11.566;2023-07-29T14:43:23;22.39;82.10
64111;DHT22;50401;48.188;11.566;2023-07-29T14:45:49;22.36;82.19
64111;DHT22;50401;48.188;11.566;2023-07-29T14:48:14;22.22;82.47
64111;DHT22;50401;48.188;11.566;2023-07-29T14:50:39;22.16;82.50
64111;DHT22;50401;48.188;11.566;2023-07-29T14:53:05;22.16;82.35
64111;DHT22;50401;48.188;11.566;2023-07-29T14:55:30;22.15;82.34
64111;DHT22;50401;48.188;11.566;2023-07-29T14:57:56;22.13;82.25
64111;DHT22;50401;48.188;11.566;2023-07-29T15:00:21;22.04;81.25
64111;DHT22;50401;48.188;11.566;2023-07-29T15:02:46;22.01;81.10
64111;DHT22;50401;48.188;11.566;2023-07-29T15:05:12;21.98;80.82
64111;DHT22;50401;48.188;11.566;2023-07-29T15:07:37;21.98;80.87
64111;DHT22;50401;48.188;11.566;2023-07-29T15:10:03;21.97;81.15
64111;DHT22;50401;48.188;11.566;2023-07-29T15:12:28;21.94;80.78
64111;DHT22;50401;48.188;11.566;2023-07-29T15:14:53;21.91;81.13
64111;DHT22;50401;48.188;11.566;2023-07-29T15:17:19;21.88;81.05
64111;DHT22;50401;48.188;11.566;2023-07-29T15:19:44;21.80;81.20